createdAt,value
2023-06-17T00:00:44.144Z,5.07
2023-06-17T00:04:07.989Z,4.70
2023-06-17T00:07:31.963Z,5.40
2023-06-17T00:10:55.698Z,5.47
2023-06-17T00:14:21.732Z,5.10
2023-06-17T00:17:47.434Z,5.17
2023-06-17T00:21:11.342Z,5.50
2023-06-17T00:24:35.140Z,5.17
2023-06-17T00:27:58.849Z,4.40
2023-06-17T00:31:22.505Z,4.70
2023-06-17T00:34:47.714Z,5.50
2023-06-17T00:38:11.289Z,5.20
2023-06-17T00:41:35.009Z,5.40
2023-06-17T00:44:58.548Z,5.50
2023-06-17T00:48:22.599Z,4.83
2023-06-17T00:52:00.118Z,4.43
2023-06-17T00:55:33.467Z,5.20
2023-06-17T00:58:58.387Z,5.20
2023-06-17T01:02:26.612Z,4.80
2023-06-17T01:05:52.584Z,4.87
2023-06-17T01:09:22.183Z,5.83
2023-06-17T01:12:50.080Z,5.67
2023-06-17T01:16:13.882Z,4.60
2023-06-17T01:19:37.607Z,5.43
2023-06-17T01:23:02.821Z,5.60
2023-06-17T01:26:29.398Z,5.37
2023-06-17T01:29:53.516Z,5.73
2023-06-17T01:33:17.711Z,5.87
2023-06-17T01:36:42.077Z,5.33
2023-06-17T01:40:09.870Z,5.70
2023-06-17T01:43:37.311Z,5.90
2023-06-17T01:47:01.362Z,5.20
2023-06-17T01:50:25.131Z,5.80
2023-06-17T01:53:48.882Z,5.90
2023-06-17T01:57:12.786Z,5.77
2023-06-17T02:00:37.804Z,5.87
2023-06-17T02:04:01.487Z,5.57
2023-06-17T02:07:27.310Z,5.67
2023-06-17T02:10:51.167Z,6.10
2023-06-17T02:14:14.937Z,5.60
2023-06-17T02:17:39.917Z,5.43
2023-06-17T02:21:04.662Z,5.77
2023-06-17T02:24:28.772Z,5.70
2023-06-17T02:27:52.617Z,5.63
2023-06-17T02:31:19.221Z,6.73
2023-06-17T02:34:44.882Z,5.90
2023-06-17T02:38:08.625Z,6.20
2023-06-17T02:41:32.706Z,6.40
2023-06-17T02:44:56.392Z,6.13
2023-06-17T02:48:20.028Z,6.00
2023-06-17T02:51:45.168Z,6.53
2023-06-17T02:55:09.441Z,6.10
2023-06-17T02:58:33.374Z,6.73
2023-06-17T03:01:57.274Z,6.33
2023-06-17T03:05:20.964Z,6.67
2023-06-17T03:08:46.020Z,7.23
2023-06-17T03:12:10.653Z,7.33
2023-06-17T03:15:34.982Z,7.53
2023-06-17T03:19:00.078Z,7.30
2023-06-17T03:22:24.818Z,6.50
2023-06-17T03:25:50.939Z,6.87
2023-06-17T03:29:14.718Z,7.73
2023-06-17T03:32:38.526Z,6.97
2023-06-17T03:36:02.177Z,6.73
2023-06-17T03:39:25.998Z,7.10
2023-06-17T03:42:52.906Z,8.50
2023-06-17T03:46:16.548Z,8.20
2023-06-17T03:49:40.771Z,8.73
2023-06-17T03:53:06.151Z,8.20
2023-06-17T03:56:29.742Z,8.17
2023-06-17T03:59:55.655Z,8.63
2023-06-17T04:03:20.722Z,7.63
2023-06-17T04:06:44.585Z,8.47
2023-06-17T04:10:10.030Z,8.10
2023-06-17T04:13:33.671Z,8.60
2023-06-17T04:17:00.242Z,8.53
2023-06-17T04:20:27.018Z,8.70
2023-06-17T04:23:51.224Z,9.10
2023-06-17T04:27:15.447Z,9.13
2023-06-17T04:30:40.839Z,8.83
2023-06-17T04:34:06.414Z,9.80
2023-06-17T04:37:30.105Z,10.63
2023-06-17T04:40:54.174Z,8.90
2023-06-17T04:44:19.518Z,9.17
2023-06-17T04:47:43.268Z,8.90
2023-06-17T04:51:08.353Z,9.60
2023-06-17T04:54:32.136Z,10.80
2023-06-17T04:57:55.964Z,10.70
2023-06-17T05:01:31.671Z,9.87
2023-06-17T05:04:56.224Z,8.70
2023-06-17T05:08:21.462Z,8.60
2023-06-17T05:11:46.117Z,10.00
2023-06-17T05:15:11.073Z,9.57
2023-06-17T05:18:34.830Z,9.63
2023-06-17T05:21:59.784Z,9.43
2023-06-17T05:25:25.826Z,11.23
2023-06-17T05:28:49.433Z,10.10
2023-06-17T05:32:13.712Z,10.60
2023-06-17T05:35:37.481Z,9.50
2023-06-17T05:39:01.741Z,10.20
2023-06-17T05:42:26.804Z,10.23
2023-06-17T05:45:50.889Z,10.80
2023-06-17T05:49:15.783Z,10.20
2023-06-17T05:52:40.046Z,9.43
2023-06-17T05:56:03.612Z,9.83
2023-06-17T05:59:30.907Z,10.07
2023-06-17T06:02:55.365Z,9.83
2023-06-17T06:06:19.922Z,10.47
2023-06-17T06:09:43.516Z,9.50
2023-06-17T06:13:07.234Z,10.73
2023-06-17T06:16:32.492Z,10.17
2023-06-17T06:19:56.230Z,9.90
2023-06-17T06:23:19.924Z,10.33
2023-06-17T06:26:43.830Z,10.40
2023-06-17T06:30:11.295Z,9.83
2023-06-17T06:33:40.737Z,9.83
2023-06-17T06:37:05.681Z,9.93
2023-06-17T06:40:29.443Z,9.60
2023-06-17T06:43:53.112Z,10.10
2023-06-17T06:47:16.881Z,9.27
2023-06-17T06:50:41.812Z,10.60
2023-06-17T06:54:06.981Z,9.37
2023-06-17T06:57:31.364Z,9.73
2023-06-17T07:00:55.100Z,8.40
2023-06-17T07:04:21.536Z,8.33
2023-06-17T07:07:50.486Z,9.40
2023-06-17T07:11:14.481Z,9.83
2023-06-17T07:14:38.239Z,8.93
2023-06-17T07:18:03.143Z,9.07
2023-06-17T07:21:26.845Z,9.63
2023-06-17T07:24:51.920Z,8.10
2023-06-17T07:28:15.855Z,8.83
2023-06-17T07:31:39.944Z,8.83
2023-06-17T07:35:04.066Z,7.53
2023-06-17T07:38:28.019Z,8.17
2023-06-17T07:41:53.202Z,8.43
2023-06-17T07:45:16.982Z,8.10
2023-06-17T07:48:40.617Z,8.83
2023-06-17T07:52:04.678Z,8.60
2023-06-17T07:55:30.139Z,8.87
2023-06-17T07:58:55.451Z,8.40
2023-06-17T08:02:19.854Z,7.80
2023-06-17T08:05:44.345Z,8.37
2023-06-17T08:09:09.966Z,9.33
2023-06-17T08:12:34.696Z,7.53
2023-06-17T08:15:59.902Z,9.03
2023-06-17T08:19:24.616Z,8.30
2023-06-17T08:22:48.494Z,8.50
2023-06-17T08:26:15.519Z,7.27
2023-06-17T08:29:39.506Z,7.70
2023-06-17T08:33:05.056Z,8.83
2023-06-17T08:36:30.608Z,7.33
2023-06-17T08:39:54.498Z,7.73
2023-06-17T08:43:19.783Z,8.20
2023-06-17T08:46:45.878Z,7.00
2023-06-17T08:50:23.731Z,7.07
2023-06-17T08:53:50.153Z,7.50
2023-06-17T08:57:15.527Z,7.70
2023-06-17T09:00:39.629Z,7.63
2023-06-17T09:04:04.074Z,7.13
2023-06-17T09:07:30.084Z,7.17
2023-06-17T09:10:54.581Z,6.97
2023-06-17T09:14:19.435Z,6.80
2023-06-17T09:17:46.000Z,7.20
2023-06-17T09:21:10.711Z,6.80
2023-06-17T09:24:37.433Z,6.37
2023-06-17T09:31:30.132Z,6.50
2023-06-17T09:34:54.617Z,7.00
2023-06-17T09:38:19.449Z,7.10
2023-06-17T09:41:46.610Z,7.70
2023-06-17T09:45:12.505Z,8.00
2023-06-17T09:48:39.917Z,7.37
2023-06-17T09:52:06.418Z,6.60
2023-06-17T09:55:31.444Z,6.40
2023-06-17T09:58:57.843Z,8.60
2023-06-17T10:02:21.994Z,6.97
2023-06-17T10:05:47.052Z,6.83
2023-06-17T10:09:11.904Z,5.90
2023-06-17T10:12:37.294Z,6.83
2023-06-17T10:16:05.494Z,6.20
2023-06-17T10:19:33.887Z,6.60
2023-06-17T10:23:00.424Z,6.07
2023-06-17T10:26:24.968Z,6.30
2023-06-17T10:29:50.902Z,6.33
2023-06-17T10:33:16.133Z,7.37
2023-06-17T10:36:40.762Z,6.90
2023-06-17T10:40:26.992Z,6.97
2023-06-17T10:43:51.736Z,6.00
2023-06-17T10:47:22.839Z,7.13
2023-06-17T10:50:53.514Z,6.00
2023-06-17T10:54:27.445Z,6.20
2023-06-17T10:57:52.510Z,6.40
2023-06-17T11:01:17.104Z,5.97
2023-06-17T11:04:42.398Z,6.80
2023-06-17T11:08:08.220Z,6.47
2023-06-17T11:11:34.296Z,6.80
2023-06-17T11:15:01.337Z,6.40
2023-06-17T11:18:26.225Z,6.23
2023-06-17T11:21:52.320Z,6.40
2023-06-17T11:25:20.949Z,7.07
2023-06-17T11:28:52.701Z,6.60
2023-06-17T11:32:16.851Z,6.90
2023-06-17T11:35:40.923Z,6.97
2023-06-17T11:39:05.577Z,7.93
2023-06-17T11:42:31.559Z,7.47
2023-06-17T11:45:59.371Z,7.17
2023-06-17T11:49:26.444Z,7.97
2023-06-17T11:52:58.008Z,7.03
2023-06-17T11:56:23.017Z,8.17
2023-06-17T11:59:48.287Z,7.23
2023-06-17T12:06:37.322Z,7.87
2023-06-17T12:10:01.935Z,8.30
2023-06-17T12:13:25.878Z,8.00
2023-06-17T12:16:53.901Z,8.10
2023-06-17T12:20:18.979Z,8.77
2023-06-17T12:23:43.986Z,9.30
2023-06-17T12:27:10.564Z,8.67
2023-06-17T12:30:35.682Z,8.97
2023-06-17T12:34:01.181Z,9.00
2023-06-17T12:37:28.564Z,8.70
2023-06-17T12:40:52.866Z,8.70
2023-06-17T12:44:18.684Z,7.87
2023-06-17T12:47:43.091Z,7.23
2023-06-17T12:51:08.241Z,8.80
2023-06-17T12:54:31.860Z,8.83
2023-06-17T12:57:55.941Z,9.50
2023-06-17T13:01:19.933Z,8.47
2023-06-17T13:04:43.907Z,8.93
2023-06-17T13:08:09.253Z,7.83
2023-06-17T13:11:35.310Z,8.33
2023-06-17T13:14:58.917Z,8.00
2023-06-17T13:18:22.992Z,9.20
2023-06-17T13:21:47.446Z,8.80
2023-06-17T13:25:13.443Z,8.17
2023-06-17T13:28:39.579Z,7.60
2023-06-17T13:32:04.313Z,7.30
2023-06-17T13:35:27.894Z,9.13
2023-06-17T13:38:51.958Z,8.20
2023-06-17T13:42:19.734Z,8.10
2023-06-17T13:45:44.128Z,8.03
2023-06-17T13:49:07.974Z,9.20
2023-06-17T13:52:34.112Z,8.87
2023-06-17T13:56:00.542Z,9.80
2023-06-17T13:59:31.648Z,8.00
2023-06-17T14:02:57.947Z,8.90
2023-06-17T14:06:22.639Z,9.50
2023-06-17T14:09:49.209Z,9.13
2023-06-17T14:13:16.335Z,9.33
2023-06-17T14:16:43.791Z,9.20
2023-06-17T14:20:08.898Z,8.47
2023-06-17T14:23:35.979Z,7.83
2023-06-17T14:27:24.738Z,8.20
2023-06-17T14:30:49.942Z,8.90
2023-06-17T14:34:22.676Z,7.77
2023-06-17T14:37:49.141Z,8.07
2023-06-17T14:41:14.388Z,8.70
2023-06-17T14:44:40.587Z,8.27
2023-06-17T14:48:08.349Z,8.80
2023-06-17T14:51:41.893Z,7.47
2023-06-17T14:55:08.111Z,6.83
2023-06-17T14:58:34.111Z,9.30
2023-06-17T15:02:00.060Z,9.10
2023-06-17T15:05:24.822Z,9.67
2023-06-17T15:09:28.713Z,7.77
2023-06-17T15:12:56.525Z,9.90
2023-06-17T15:16:26.049Z,8.30
2023-06-17T15:19:59.006Z,8.70
2023-06-17T15:23:25.499Z,8.60
2023-06-17T15:26:58.463Z,8.77
2023-06-17T15:30:25.645Z,7.73
2023-06-17T15:33:53.247Z,8.50
2023-06-17T15:37:18.114Z,8.40
2023-06-17T15:40:42.391Z,9.00
2023-06-17T15:44:07.661Z,8.10
2023-06-17T15:47:32.370Z,8.40
2023-06-17T15:50:56.169Z,6.97
2023-06-17T15:54:26.880Z,8.77
2023-06-17T15:57:51.615Z,8.10
2023-06-17T16:01:20.475Z,7.43
2023-06-17T16:04:47.098Z,7.70
2023-06-17T16:08:13.559Z,7.00
2023-06-17T16:11:37.811Z,6.50
2023-06-17T16:15:03.874Z,8.17
2023-06-17T16:18:31.355Z,8.40
2023-06-17T16:22:00.055Z,8.47
2023-06-17T16:25:29.675Z,9.27
2023-06-17T16:28:59.361Z,8.70
2023-06-17T16:32:23.282Z,8.30
2023-06-17T16:35:53.268Z,7.23
2023-06-17T16:39:18.721Z,6.93
2023-06-17T16:42:43.189Z,6.60
2023-06-17T16:46:11.913Z,6.53
2023-06-17T16:49:38.998Z,6.60
2023-06-17T16:53:09.307Z,8.13
2023-06-17T16:56:35.435Z,6.40
2023-06-17T17:00:04.200Z,6.80
2023-06-17T17:03:30.399Z,7.23
2023-06-17T17:06:54.173Z,6.93
2023-06-17T17:10:27.008Z,6.97
2023-06-17T17:13:52.656Z,7.60
2023-06-17T17:17:17.393Z,7.83
2023-06-17T17:20:42.731Z,7.13
2023-06-17T17:24:09.985Z,7.17
2023-06-17T17:27:38.075Z,6.77
2023-06-17T17:31:01.720Z,7.07
2023-06-17T17:34:26.370Z,7.13
2023-06-17T17:37:52.924Z,7.33
2023-06-17T17:41:20.104Z,6.47
2023-06-17T17:44:45.690Z,7.80
2023-06-17T17:48:09.294Z,7.20
2023-06-17T17:51:40.812Z,6.57
2023-06-17T17:55:08.042Z,8.40
2023-06-17T17:58:37.445Z,6.77
2023-06-17T18:02:05.934Z,6.30
2023-06-17T18:05:34.123Z,6.53
2023-06-17T18:08:58.527Z,7.60
2023-06-17T18:12:23.389Z,6.20
2023-06-17T18:15:48.351Z,6.40
2023-06-17T18:19:19.430Z,6.80
2023-06-17T18:22:43.457Z,6.73
2023-06-17T18:26:09.804Z,6.90
2023-06-17T18:29:35.617Z,7.20
2023-06-17T18:33:03.023Z,7.00
2023-06-17T18:36:28.692Z,6.90
2023-06-17T18:39:54.851Z,7.00
2023-06-17T18:43:21.541Z,7.40
2023-06-17T18:46:45.686Z,7.33
2023-06-17T18:50:10.934Z,6.87
2023-06-17T18:53:39.209Z,7.10
2023-06-17T18:57:05.008Z,7.33
2023-06-17T19:00:31.962Z,6.23
2023-06-17T19:03:56.124Z,6.67
2023-06-17T19:07:20.516Z,6.70
2023-06-17T19:10:45.840Z,6.40
2023-06-17T19:14:12.024Z,7.20
2023-06-17T19:17:38.882Z,7.03
2023-06-17T19:21:02.599Z,6.80
2023-06-17T19:24:28.679Z,8.13
2023-06-17T19:27:56.218Z,8.33
2023-06-17T19:31:22.059Z,7.40
2023-06-17T19:34:48.320Z,8.20
2023-06-17T19:38:12.158Z,8.03
2023-06-17T19:41:36.100Z,8.07
2023-06-17T19:45:08.849Z,7.07
2023-06-17T19:48:38.606Z,7.70
2023-06-17T19:52:02.707Z,8.23
2023-06-17T19:55:26.457Z,8.47
2023-06-17T19:58:52.712Z,7.57
2023-06-17T20:02:29.793Z,7.63
2023-06-17T20:06:02.952Z,8.77
2023-06-17T20:09:31.870Z,7.10
2023-06-17T20:13:01.382Z,8.50
2023-06-17T20:16:34.441Z,10.70
2023-06-17T20:20:02.117Z,10.83
2023-06-17T20:23:28.330Z,9.00
2023-06-17T20:26:53.504Z,9.10
2023-06-17T20:30:17.627Z,9.90
2023-06-17T20:33:47.510Z,9.37
2023-06-17T20:37:15.115Z,8.90
2023-06-17T20:40:41.945Z,9.60
2023-06-17T20:44:06.939Z,9.40
2023-06-17T20:47:30.810Z,10.90
2023-06-17T20:50:56.798Z,10.10
2023-06-17T20:54:24.639Z,10.30
2023-06-17T20:57:52.913Z,9.53
2023-06-17T21:01:20.844Z,8.97
2023-06-17T21:04:44.917Z,9.77
2023-06-17T21:08:09.792Z,9.03
2023-06-17T21:11:39.694Z,10.00
2023-06-17T21:15:03.369Z,10.53
2023-06-17T21:18:30.135Z,10.23
2023-06-17T21:21:54.853Z,10.07
2023-06-17T21:25:20.837Z,10.43
2023-06-17T21:28:59.693Z,9.27
2023-06-17T21:32:23.659Z,10.97
2023-06-17T21:35:47.717Z,10.90
2023-06-17T21:39:18.978Z,11.40
2023-06-17T21:42:42.529Z,11.47
2023-06-17T21:46:08.088Z,11.27
2023-06-17T21:49:35.321Z,12.77
2023-06-17T21:53:00.001Z,10.40
2023-06-17T21:56:24.209Z,9.77
2023-06-17T21:59:50.250Z,11.43
2023-06-17T22:03:16.389Z,10.70
2023-06-17T22:06:43.218Z,11.03
2023-06-17T22:10:07.725Z,11.73
2023-06-17T22:13:39.095Z,11.17
2023-06-17T22:17:05.100Z,10.83
2023-06-17T22:20:35.984Z,10.83
2023-06-17T22:24:03.677Z,11.87
2023-06-17T22:27:29.878Z,10.33
2023-06-17T22:30:53.698Z,11.10
2023-06-17T22:34:20.043Z,11.77
2023-06-17T22:37:45.097Z,12.73
2023-06-17T22:41:11.038Z,11.40
2023-06-17T22:44:34.948Z,11.90
2023-06-17T22:48:01.124Z,11.60
2023-06-17T22:51:25.211Z,11.60
2023-06-17T22:54:54.706Z,13.10
2023-06-17T22:58:18.820Z,11.60
2023-06-17T23:01:42.743Z,13.30
2023-06-17T23:05:07.169Z,12.13
2023-06-17T23:08:31.988Z,11.10
2023-06-17T23:11:59.508Z,11.40
2023-06-17T23:15:23.074Z,11.43
2023-06-17T23:18:46.748Z,12.23
2023-06-17T23:22:11.448Z,11.93
2023-06-17T23:25:35.780Z,12.30
2023-06-17T23:29:01.174Z,12.97
2023-06-17T23:32:26.108Z,11.20
2023-06-17T23:35:58.129Z,12.67
2023-06-17T23:39:21.896Z,12.17
2023-06-17T23:42:45.796Z,14.07
2023-06-17T23:46:15.340Z,13.00
2023-06-17T23:49:42.284Z,12.43
2023-06-17T23:53:06.061Z,13.30
2023-06-17T23:56:30.715Z,12.57
2023-06-17T23:59:58.046Z,12.13
